createdAt,value
2019-03-21T00:01:35.128Z,18.57
2019-03-21T00:04:11.203Z,18.63
2019-03-21T00:06:41.526Z,17.70
2019-03-21T00:09:13.787Z,18.70
2019-03-21T00:12:01.861Z,18.50
2019-03-21T00:14:44.077Z,18.23
2019-03-21T00:17:14.894Z,20.37
2019-03-21T00:19:46.236Z,19.13
2019-03-21T00:22:16.594Z,18.50
2019-03-21T00:24:46.796Z,18.83
2019-03-21T00:27:17.045Z,20.63
2019-03-21T00:29:47.431Z,20.63
2019-03-21T00:32:17.832Z,19.63
2019-03-21T00:34:48.095Z,20.07
2019-03-21T00:37:18.405Z,19.70
2019-03-21T00:39:48.856Z,19.37
2019-03-21T00:42:19.266Z,20.00
2019-03-21T00:44:49.620Z,19.40
2019-03-21T00:47:20.033Z,19.20
2019-03-21T00:49:50.306Z,19.97
2019-03-21T00:52:20.586Z,19.27
2019-03-21T00:54:50.948Z,19.37
2019-03-21T00:57:22.266Z,19.80
2019-03-21T00:59:52.567Z,19.73
2019-03-21T01:02:22.937Z,19.13
2019-03-21T01:04:53.339Z,20.03
2019-03-21T01:07:23.747Z,19.77
2019-03-21T01:09:54.087Z,20.10
2019-03-21T01:12:24.493Z,19.60
2019-03-21T01:14:54.731Z,19.83
2019-03-21T01:17:25.054Z,20.83
2019-03-21T01:19:55.340Z,20.90
2019-03-21T01:22:25.603Z,19.77
2019-03-21T01:24:55.949Z,20.37
2019-03-21T01:27:26.220Z,19.73
2019-03-21T01:29:56.605Z,20.07
2019-03-21T01:32:26.921Z,20.83
2019-03-21T01:34:57.292Z,20.87
2019-03-21T01:37:27.591Z,19.77
2019-03-21T01:39:57.820Z,19.87
2019-03-21T01:42:30.211Z,20.33
2019-03-21T01:45:00.511Z,20.20
2019-03-21T01:47:30.855Z,20.03
2019-03-21T01:50:01.145Z,20.00
2019-03-21T01:52:31.355Z,19.47
2019-03-21T01:55:01.705Z,20.50
2019-03-21T01:57:33.127Z,21.50
2019-03-21T02:00:03.383Z,20.70
2019-03-21T02:02:33.797Z,20.17
2019-03-21T02:05:04.322Z,21.17
2019-03-21T02:07:34.510Z,20.90
2019-03-21T02:10:05.342Z,20.53
2019-03-21T02:12:35.619Z,20.90
2019-03-21T02:15:06.681Z,20.17
2019-03-21T02:17:39.176Z,20.13
2019-03-21T02:20:10.385Z,20.73
2019-03-21T02:22:40.594Z,20.27
2019-03-21T02:25:14.180Z,21.20
2019-03-21T02:27:44.631Z,20.97
2019-03-21T02:30:23.630Z,21.93
2019-03-21T02:32:56.680Z,20.93
2019-03-21T02:35:26.913Z,19.23
2019-03-21T02:37:57.154Z,19.43
2019-03-21T02:40:27.581Z,20.57
2019-03-21T02:42:57.802Z,20.47
2019-03-21T02:45:28.244Z,19.80
2019-03-21T02:47:58.460Z,19.57
2019-03-21T02:50:31.165Z,19.70
2019-03-21T02:53:01.457Z,19.87
2019-03-21T02:55:31.823Z,22.33
2019-03-21T02:58:02.143Z,20.83
2019-03-21T03:00:33.084Z,19.50
2019-03-21T03:03:03.373Z,19.50
2019-03-21T03:05:33.677Z,19.70
2019-03-21T03:08:04.050Z,19.87
2019-03-21T03:10:37.165Z,20.80
2019-03-21T03:13:07.584Z,19.83
2019-03-21T03:15:37.935Z,20.83
2019-03-21T03:18:08.327Z,21.13
2019-03-21T03:20:38.650Z,20.83
2019-03-21T03:23:08.994Z,20.67
2019-03-21T03:25:39.254Z,21.87
2019-03-21T03:28:12.623Z,21.73
2019-03-21T03:30:42.982Z,21.50
2019-03-21T03:33:13.488Z,21.83
2019-03-21T03:35:43.794Z,21.50
2019-03-21T03:38:14.135Z,21.50
2019-03-21T03:40:46.637Z,20.67
2019-03-21T03:43:18.981Z,19.83
2019-03-21T03:45:50.868Z,21.27
2019-03-21T03:48:21.051Z,20.00
2019-03-21T03:50:51.356Z,20.80
2019-03-21T03:53:21.709Z,19.93
2019-03-21T03:55:52.033Z,21.57
2019-03-21T03:58:22.816Z,19.17
2019-03-21T04:00:53.228Z,20.27
2019-03-21T04:03:23.678Z,19.27
2019-03-21T04:05:54.035Z,20.73
2019-03-21T04:08:25.392Z,21.00
2019-03-21T04:10:58.777Z,20.27
2019-03-21T04:13:29.481Z,21.17
2019-03-21T04:16:00.454Z,20.83
2019-03-21T04:18:31.259Z,20.80
2019-03-21T04:21:02.237Z,19.73
2019-03-21T04:23:33.038Z,18.20
2019-03-21T04:26:10.624Z,19.03
2019-03-21T04:28:41.546Z,19.37
2019-03-21T04:31:12.207Z,18.63
2019-03-21T04:33:43.375Z,19.53
2019-03-21T04:44:58.415Z,19.50
2019-03-21T04:47:28.738Z,18.93
2019-03-21T06:42:16.487Z,18.20
2019-03-21T06:44:46.356Z,19.37
2019-03-21T06:47:16.227Z,18.97
2019-03-21T06:49:46.651Z,17.03
2019-03-21T06:52:16.678Z,17.03
2019-03-21T06:54:47.453Z,18.13
2019-03-21T06:57:17.323Z,18.70
2019-03-21T06:59:49.551Z,18.17
2019-03-21T07:02:20.397Z,17.50
2019-03-21T07:04:50.360Z,18.73
2019-03-21T07:07:20.229Z,18.43
2019-03-21T07:09:50.080Z,18.57
2019-03-21T07:12:19.942Z,20.27
2019-03-21T07:14:50.578Z,19.00
2019-03-21T07:17:22.874Z,18.63
2019-03-21T07:19:52.173Z,18.53
2019-03-21T07:22:22.102Z,18.00
2019-03-21T07:24:52.053Z,18.90
2019-03-21T07:27:21.939Z,18.20
2019-03-21T07:29:51.785Z,19.33
2019-03-21T07:32:32.918Z,19.83
2019-03-21T07:34:53.409Z,18.03
2019-03-21T07:37:23.287Z,18.30
2019-03-21T07:39:53.225Z,18.00
2019-03-21T07:42:23.155Z,17.53
2019-03-21T07:44:53.042Z,18.43
2019-03-21T07:47:23.094Z,19.83
2019-03-21T07:49:52.895Z,18.50
2019-03-21T07:52:22.856Z,19.07
2019-03-21T07:54:52.729Z,18.93
2019-03-21T07:57:22.570Z,18.23
2019-03-21T07:59:52.411Z,18.83
2019-03-21T08:02:22.331Z,18.87
2019-03-21T08:04:52.222Z,17.97
2019-03-21T08:07:22.110Z,18.47
2019-03-21T08:09:52.083Z,19.70
2019-03-21T08:12:22.552Z,18.73
2019-03-21T08:14:52.600Z,18.53
2019-03-21T08:17:22.905Z,17.87
2019-03-21T08:19:52.772Z,17.37
2019-03-21T08:22:22.836Z,18.13
2019-03-21T08:24:52.759Z,17.97
2019-03-21T08:27:22.616Z,18.23
2019-03-21T08:29:52.532Z,17.80
2019-03-21T08:32:32.428Z,17.77
2019-03-21T08:35:02.677Z,18.33
2019-03-21T08:37:32.995Z,17.83
2019-03-21T08:40:06.800Z,17.50
2019-03-21T08:57:42.446Z,15.17
2019-03-21T09:12:16.378Z,15.83
2019-03-21T09:34:51.306Z,15.47
2019-03-21T09:37:21.552Z,14.43
2019-03-21T09:39:51.756Z,15.10
2019-03-21T09:45:05.906Z,14.67
2019-03-21T09:47:41.581Z,15.73
2019-03-21T09:50:15.764Z,14.67
2019-03-21T09:52:55.760Z,15.80
2019-03-21T09:55:32.617Z,16.30
2019-03-21T10:34:19.793Z,13.73
2019-03-21T10:36:49.638Z,14.13
2019-03-21T10:39:19.563Z,13.00
2019-03-21T10:41:49.446Z,15.17
2019-03-21T10:44:19.483Z,13.37
2019-03-21T10:46:49.415Z,13.87
2019-03-21T10:49:19.355Z,15.40
2019-03-21T10:51:54.885Z,14.53
2019-03-21T10:54:23.455Z,13.70
2019-03-21T10:56:52.591Z,13.30
2019-03-21T10:59:22.421Z,13.53
2019-03-21T11:01:52.318Z,13.30
2019-03-21T11:04:22.270Z,14.30
2019-03-21T11:07:00.346Z,14.07
2019-03-21T11:09:31.033Z,13.73
2019-03-21T11:12:00.930Z,13.40
2019-03-21T11:14:30.918Z,14.43
2019-03-21T11:17:00.869Z,14.60
2019-03-21T11:19:30.818Z,11.83
2019-03-21T11:22:06.293Z,12.57
2019-03-21T11:24:32.648Z,12.53
2019-03-21T11:27:02.642Z,12.50
2019-03-21T11:29:32.571Z,12.37
2019-03-21T11:32:02.444Z,12.63
2019-03-21T11:34:32.309Z,12.30
2019-03-21T11:37:02.324Z,12.40
2019-03-21T11:39:32.203Z,11.80
2019-03-21T11:42:02.127Z,12.20
2019-03-21T11:44:32.111Z,12.87
2019-03-21T11:47:04.927Z,12.37
2019-03-21T11:49:37.883Z,11.60
2019-03-21T11:52:17.745Z,11.40
2019-03-21T11:54:39.413Z,11.10
2019-03-21T11:57:09.291Z,10.80
2019-03-21T11:59:51.158Z,11.07
2019-03-21T12:02:10.842Z,11.83
2019-03-21T12:04:40.885Z,10.67
2019-03-21T12:07:10.823Z,9.93
